Time;durP1;ratioP1;P1;durP2;ratioP2;P2;SDS_P1;SDS_P2;PMS_P1;PMS_P2;Temp;Humidity;BMP_temperature;BMP_pressure;BME280_temperature;BME280_humidity;BME280_pressure;Samples;Min_cycle;Max_cycle;Signal;HPM_P1;HPM_P2
2023/10/17 00:01:01;;;;;;;20.20;17.37;;;;;3.80;97189.00;;;;5023803;28;20440;-68
2023/10/17 00:03:53;;;;;;;15.30;13.73;;;;;3.70;97188.00;;;;5025329;28;20432;-68
2023/10/17 00:06:43;;;;;;;17.93;13.80;;;;;3.60;97187.00;;;;5025711;28;20958;-67
2023/10/17 00:09:36;;;;;;;17.83;15.93;;;;;3.50;97184.00;;;;5030182;28;20431;-67
2023/10/17 00:12:39;;;;;;;16.13;14.13;;;;;3.30;97178.00;;;;5027227;28;20436;-68
2023/10/17 00:15:28;;;;;;;16.77;12.93;;;;;3.50;97181.00;;;;5025937;28;20836;-67
2023/10/17 00:18:20;;;;;;;20.67;17.93;;;;;4.20;97184.00;;;;5027687;28;20432;-68
2023/10/17 00:21:20;;;;;;;27.00;20.53;;;;;4.30;97188.00;;;;5022674;28;20475;-67
2023/10/17 00:24:10;;;;;;;26.87;20.37;;;;;3.60;97174.00;;;;5023230;28;21150;-68
2023/10/17 00:26:59;;;;;;;16.63;14.60;;;;;3.40;97173.00;;;;5024236;28;20464;-66
2023/10/17 00:29:48;;;;;;;17.00;15.03;;;;;3.60;97172.00;;;;5027643;28;20447;-67
2023/10/17 00:32:41;;;;;;;22.30;19.53;;;;;3.90;97167.00;;;;5025340;28;20817;-68
2023/10/17 00:35:38;;;;;;;27.60;22.67;;;;;4.20;97175.00;;;;5021294;28;20455;-68
2023/10/17 00:38:29;;;;;;;25.10;21.63;;;;;4.00;97175.00;;;;5025726;28;20972;-67
2023/10/17 00:41:29;;;;;;;34.17;26.80;;;;;3.90;97173.00;;;;5026069;28;20483;-68
2023/10/17 00:44:27;;;;;;;21.03;18.87;;;;;3.90;97176.00;;;;5026977;28;20433;-67
2023/10/17 00:47:18;;;;;;;24.47;19.17;;;;;3.80;97187.00;;;;5021113;28;20475;-67
2023/10/17 00:50:13;;;;;;;22.07;19.10;;;;;3.60;97173.00;;;;5023333;28;20428;-67
2023/10/17 00:53:05;;;;;;;17.07;14.83;;;;;4.00;97181.00;;;;5025031;28;20803;-67
2023/10/17 00:55:56;;;;;;;21.87;17.93;;;;;4.30;97179.00;;;;5026190;28;20455;-67
2023/10/17 00:58:45;;;;;;;17.27;15.60;;;;;4.30;97172.00;;;;5025953;28;20429;-67
2023/10/17 01:01:34;;;;;;;14.60;13.25;;;;;4.30;97176.00;;;;5028364;28;20429;-67
2023/10/17 01:04:24;;;;;;;19.57;15.23;;;;;4.00;97165.00;;;;5026613;28;20608;-67
2023/10/17 01:07:23;;;;;;;21.77;16.87;;;;;3.70;97169.00;;;;5022350;28;20452;-68
2023/10/17 01:10:16;;;;;;;12.83;11.67;;;;;3.50;97165.00;;;;5027834;28;20432;-68
2023/10/17 01:13:05;;;;;;;20.17;16.43;;;;;3.60;97164.00;;;;5023113;28;20435;-68
2023/10/17 01:15:57;;;;;;;20.20;15.53;;;;;3.60;97169.00;;;;5024931;28;20452;-67
2023/10/17 01:18:47;;;;;;;12.13;10.93;;;;;3.90;97167.00;;;;5027885;28;20476;-67
2023/10/17 01:21:36;;;;;;;13.17;11.77;;;;;3.90;97161.00;;;;5028848;28;20428;-68
2023/10/17 01:24:27;;;;;;;12.87;11.10;;;;;3.30;97151.00;;;;5028586;28;21245;-68
2023/10/17 01:27:16;;;;;;;13.90;9.33;;;;;3.10;97153.00;;;;5023077;28;20477;-69
2023/10/17 01:30:06;;;;;;;7.73;7.00;;;;;3.30;97157.00;;;;5024874;28;20425;-68
2023/10/17 01:32:56;;;;;;;9.37;8.03;;;;;3.40;97163.00;;;;5022526;28;20443;-68
2023/10/17 01:35:45;;;;;;;9.97;7.37;;;;;3.30;97156.00;;;;5028015;28;20448;-68
2023/10/17 01:38:34;;;;;;;10.53;8.80;;;;;3.40;97159.00;;;;5028623;28;20944;-68
2023/10/17 01:41:25;;;;;;;14.80;11.37;;;;;3.90;97164.00;;;;5027496;28;20797;-67
2023/10/17 01:44:15;;;;;;;18.37;14.33;;;;;4.10;97169.00;;;;5021298;28;20431;-68
2023/10/17 01:47:07;;;;;;;16.30;14.70;;;;;3.90;97157.00;;;;5022307;28;20443;-67
2023/10/17 01:49:57;;;;;;;15.10;13.60;;;;;3.90;97161.00;;;;5025497;28;21000;-68
2023/10/17 01:52:46;;;;;;;18.10;16.43;;;;;4.10;97164.00;;;;5028540;28;20428;-67
2023/10/17 01:55:35;;;;;;;22.37;18.13;;;;;4.40;97165.00;;;;5026306;28;20456;-67
2023/10/17 01:58:29;;;;;;;20.53;17.87;;;;;4.40;97165.00;;;;5027537;28;20432;-67
2023/10/17 02:01:24;;;;;;;18.07;15.77;;;;;4.50;97164.00;;;;5026051;28;20960;-67
2023/10/17 02:04:16;;;;;;;18.43;15.13;;;;;4.50;97162.00;;;;5024747;28;20432;-67
2023/10/17 02:07:05;;;;;;;15.10;13.60;;;;;4.10;97157.00;;;;5025279;28;20448;-67
2023/10/17 02:09:55;;;;;;;13.03;11.77;;;;;4.10;97161.00;;;;5020181;28;20425;-67
2023/10/17 02:12:45;;;;;;;12.90;10.30;;;;;3.70;97148.00;;;;5026821;28;20432;-67
2023/10/17 02:15:38;;;;;;;10.13;8.50;;;;;3.50;97151.00;;;;5027538;28;20444;-66
2023/10/17 02:18:28;;;;;;;12.40;10.43;;;;;3.50;97155.00;;;;5023233;28;20442;-66
2023/10/17 02:21:21;;;;;;;11.83;9.47;;;;;3.40;97155.00;;;;5022373;28;20436;-67
2023/10/17 02:24:10;;;;;;;13.23;9.20;;;;;3.50;97164.00;;;;5024828;28;20436;-66
2023/10/17 02:27:00;;;;;;;9.53;8.23;;;;;3.80;97155.00;;;;5019809;28;20452;-65
2023/10/17 02:29:49;;;;;;;11.00;9.63;;;;;3.90;97153.00;;;;5026709;28;20468;-65
2023/10/17 02:32:44;;;;;;;12.23;10.50;;;;;4.10;97161.00;;;;5023323;28;20424;-65
2023/10/17 02:35:36;;;;;;;11.40;9.30;;;;;3.90;97157.00;;;;5026202;28;20448;-65
2023/10/17 02:38:25;;;;;;;14.30;10.03;;;;;3.60;97143.00;;;;5026782;28;20806;-65
2023/10/17 02:41:18;;;;;;;15.13;9.60;;;;;3.50;97151.00;;;;5022249;28;20436;-66
2023/10/17 02:44:08;;;;;;;10.50;9.20;;;;;3.60;97142.00;;;;5024037;28;20424;-64
2023/10/17 02:46:58;;;;;;;11.30;10.03;;;;;4.00;97155.00;;;;5021058;28;20948;-65
2023/10/17 02:49:49;;;;;;;14.07;11.87;;;;;4.20;97165.00;;;;5024510;28;20472;-65
2023/10/17 02:52:38;;;;;;;11.87;10.67;;;;;4.40;97172.00;;;;5024775;28;20420;-65
2023/10/17 02:55:29;;;;;;;14.00;11.70;;;;;4.50;97165.00;;;;5024256;28;20609;-65
2023/10/17 02:58:18;;;;;;;21.97;15.87;;;;;4.40;97163.00;;;;5022586;28;20439;-65
2023/10/17 03:01:07;;;;;;;11.93;10.77;;;;;4.30;97167.00;;;;5024252;28;20431;-65
2023/10/17 03:03:56;;;;;;;15.13;13.27;;;;;4.40;97161.00;;;;5022663;28;20428;-65
2023/10/17 03:06:47;;;;;;;17.77;14.33;;;;;4.40;97160.00;;;;5023902;28;20493;-65
2023/10/17 03:09:39;;;;;;;13.83;12.47;;;;;4.20;97165.00;;;;5023568;28;20457;-65
2023/10/17 03:12:29;;;;;;;8.90;8.13;;;;;3.80;97160.00;;;;5024284;28;20420;-65
2023/10/17 03:15:18;;;;;;;13.00;9.70;;;;;3.90;97165.00;;;;5023494;28;20440;-65
2023/10/17 03:18:15;;;;;;;10.70;9.17;;;;;4.00;97155.00;;;;5022351;28;20435;-64
2023/10/17 03:21:08;;;;;;;13.03;9.70;;;;;3.80;97169.00;;;;5022917;28;20429;-65
2023/10/17 03:24:10;;;;;;;9.80;8.10;;;;;3.60;97157.00;;;;5021251;28;20784;-65
2023/10/17 03:27:07;;;;;;;10.00;8.53;;;;;3.70;97161.00;;;;5018884;28;20463;-66
2023/10/17 03:29:56;;;;;;;12.63;9.00;;;;;3.80;97177.00;;;;5019418;28;20479;-65
2023/10/17 03:32:54;;;;;;;9.90;7.20;;;;;3.70;97172.00;;;;5027780;28;20432;-64
2023/10/17 03:36:03;;;;;;;15.03;8.03;;;;;3.10;97167.00;;;;5026808;28;20452;-65
2023/10/17 03:38:53;;;;;;;8.37;5.63;;;;;3.10;97171.00;;;;5028844;28;20482;-65
2023/10/17 03:41:44;;;;;;;10.60;6.90;;;;;3.30;97158.00;;;;5027415;28;20942;-65
2023/10/17 03:44:39;;;;;;;10.73;7.23;;;;;3.80;97175.00;;;;5028480;28;20433;-64
2023/10/17 03:47:31;;;;;;;11.83;7.53;;;;;3.60;97175.00;;;;5025404;28;20836;-64
2023/10/17 03:53:29;;;;;;;7.33;4.90;;;;;3.20;97166.00;;;;5021650;28;20436;-65
2023/10/17 03:56:24;;;;;;;16.97;8.67;;;;;3.30;97172.00;;;;5025266;28;20453;-67
2023/10/17 03:59:27;;;;;;;13.77;7.93;;;;;3.60;97170.00;;;;5024910;28;20495;-65
2023/10/17 04:02:19;;;;;;;13.67;8.10;;;;;3.90;97176.00;;;;5025587;28;20806;-65
2023/10/17 04:05:11;;;;;;;12.00;8.50;;;;;3.80;97171.00;;;;5024236;28;20476;-64
2023/10/17 04:08:00;;;;;;;9.43;6.90;;;;;3.40;97157.00;;;;5026624;28;20504;-65
2023/10/17 04:10:53;;;;;;;8.07;7.13;;;;;3.30;97156.00;;;;5028106;28;20424;-65
2023/10/17 04:13:43;;;;;;;10.70;8.13;;;;;3.30;97159.00;;;;5026220;28;20432;-64
2023/10/17 04:16:34;;;;;;;10.83;8.63;;;;;3.20;97159.00;;;;5029373;28;20489;-65
2023/10/17 04:19:23;;;;;;;14.93;9.23;;;;;3.40;97156.00;;;;5030565;28;20454;-65
2023/10/17 04:22:16;;;;;;;15.57;9.43;;;;;3.30;97164.00;;;;5027129;28;20428;-65
2023/10/17 04:25:19;;;;;;;7.97;6.70;;;;;3.00;97153.00;;;;5026644;28;20440;-64
2023/10/17 04:28:16;;;;;;;6.97;6.37;;;;;3.60;97168.00;;;;5006075;28;20425;-64
2023/10/17 04:31:07;;;;;;;9.97;8.27;;;;;3.70;97167.00;;;;5010132;28;20429;-65
2023/10/17 04:34:06;;;;;;;12.53;10.07;;;;;3.70;97160.00;;;;5007277;28;20505;-65
2023/10/17 04:36:56;;;;;;;13.23;10.87;;;;;3.60;97166.00;;;;5008157;28;20452;-65
2023/10/17 04:39:57;;;;;;;13.57;11.33;;;;;3.20;97158.00;;;;5004875;28;20430;-64
2023/10/17 04:42:56;;;;;;;14.00;10.37;;;;;3.10;97154.00;;;;5008614;28;20432;-64
2023/10/17 04:45:45;;;;;;;12.17;9.17;;;;;3.00;97162.00;;;;5008491;28;20495;-65
2023/10/17 04:48:35;;;;;;;15.87;11.07;;;;;2.70;97147.00;;;;5007989;28;20425;-64
2023/10/17 04:51:31;;;;;;;9.60;7.83;;;;;2.70;97155.00;;;;5006417;28;20425;-65
2023/10/17 04:54:31;;;;;;;15.20;10.23;;;;;2.80;97156.00;;;;5007964;28;20441;-65
2023/10/17 04:57:21;;;;;;;19.43;12.47;;;;;2.40;97153.00;;;;5005693;28;20453;-66
2023/10/17 05:00:11;;;;;;;14.80;11.43;;;;;2.30;97150.00;;;;5003414;28;20445;-64
2023/10/17 05:03:13;;;;;;;10.17;8.33;;;;;2.40;97153.00;;;;5006842;28;20441;-65
2023/10/17 05:06:18;;;;;;;14.97;9.10;;;;;2.10;97141.00;;;;5002482;28;20471;-65
2023/10/17 06:16:49;;;;;;;12.87;9.17;;;;;2.40;97148.00;;;;5008113;28;20425;-64
2023/10/17 06:17:50;;;;;;;31.40;26.53;;;;;2.40;97179.00;;;;5005105;28;20436;-65
2023/10/17 06:26:59;;;;;;;26.93;24.23;;;;;2.90;97189.00;;;;5013431;28;20989;-64
2023/10/17 06:30:27;;;;;;;26.43;23.63;;;;;3.00;97186.00;;;;5014515;28;20457;-65
2023/10/17 06:33:19;;;;;;;33.00;28.17;;;;;3.30;97181.00;;;;5014945;28;20436;-65
2023/10/17 06:36:24;;;;;;;28.47;25.40;;;;;3.40;97191.00;;;;5006480;28;20445;-65
2023/10/17 06:39:16;;;;;;;34.43;29.43;;;;;3.60;97193.00;;;;5004269;28;20437;-65
2023/10/17 06:42:14;;;;;;;32.93;29.37;;;;;3.30;97179.00;;;;5004035;28;20426;-65
2023/10/17 06:45:07;;;;;;;29.73;26.73;;;;;3.30;97185.00;;;;5008785;28;20930;-65
2023/10/17 06:47:58;;;;;;;35.50;28.83;;;;;3.30;97182.00;;;;5002167;28;20429;-65
2023/10/17 06:54:12;;;;;;;28.20;25.43;;;;;3.60;97182.00;;;;4969322;28;20444;-65
2023/10/17 06:57:07;;;;;;;27.60;24.70;;;;;3.50;97184.00;;;;4963093;28;20579;-65
2023/10/17 07:00:03;;;;;;;29.97;26.97;;;;;3.80;97186.00;;;;5005894;28;20421;-65
2023/10/17 07:02:56;;;;;;;25.90;23.33;;;;;3.60;97191.00;;;;5003265;28;20413;-65
2023/10/17 07:05:49;;;;;;;26.97;24.20;;;;;3.90;97187.00;;;;5007149;28;20464;-65
2023/10/17 07:08:38;;;;;;;19.27;17.53;;;;;4.10;97194.00;;;;5008505;28;20926;-65
2023/10/17 07:11:29;;;;;;;25.53;23.10;;;;;4.30;97192.00;;;;5007646;28;20464;-65
2023/10/17 07:14:24;;;;;;;23.07;20.57;;;;;4.70;97194.00;;;;5007900;28;20441;-65
2023/10/17 07:17:25;;;;;;;19.00;16.73;;;;;4.80;97200.00;;;;5007748;28;20449;-65
2023/10/17 07:20:17;;;;;;;33.17;29.90;;;;;5.40;97208.00;;;;5008358;28;20487;-65
2023/10/17 07:23:14;;;;;;;36.20;32.50;;;;;5.60;97189.00;;;;5004314;28;20425;-65
2023/10/17 07:26:09;;;;;;;36.90;33.20;;;;;5.70;97204.00;;;;5010470;28;20476;-65
2023/10/17 07:28:59;;;;;;;33.00;30.00;;;;;5.70;97199.00;;;;5023161;28;20428;-65
2023/10/17 07:31:52;;;;;;;25.60;23.43;;;;;5.40;97181.00;;;;5027243;28;20467;-66
2023/10/17 07:34:43;;;;;;;36.63;32.73;;;;;5.80;97178.00;;;;5024754;28;20437;-66
2023/10/17 07:37:48;;;;;;;33.20;30.23;;;;;6.20;97184.00;;;;5025818;28;20871;-65
2023/10/17 07:40:54;;;;;;;34.67;31.33;;;;;7.00;97181.00;;;;5025557;28;20428;-66
2023/10/17 07:43:44;;;;;;;18.33;14.97;;;;;7.40;97185.00;;;;5027040;28;20559;-66
2023/10/17 07:46:34;;;;;;;34.47;31.13;;;;;7.40;97187.00;;;;5024703;28;20443;-66
2023/10/17 07:49:26;;;;;;;14.30;8.23;;;;;7.80;97193.00;;;;5023108;28;20221;-66
2023/10/17 07:52:17;;;;;;;41.63;37.70;;;;;7.80;97190.00;;;;5021059;28;20634;-66
2023/10/17 07:55:18;;;;;;;30.13;27.23;;;;;8.00;97188.00;;;;5023571;28;20205;-65
2023/10/17 07:58:09;;;;;;;38.87;35.50;;;;;8.10;97197.00;;;;5024498;28;20201;-65
2023/10/17 08:00:58;;;;;;;46.90;42.53;;;;;8.50;97202.00;;;;5020094;28;20224;-65
2023/10/17 08:03:54;;;;;;;54.30;49.00;;;;;8.60;97199.00;;;;5024584;28;20236;-66
2023/10/17 08:06:44;;;;;;;50.63;46.03;;;;;8.60;97201.00;;;;5027696;28;20225;-65
2023/10/17 08:09:41;;;;;;;46.93;42.77;;;;;8.70;97194.00;;;;5026977;28;20218;-65
2023/10/17 08:12:33;;;;;;;46.90;42.37;;;;;9.10;97200.00;;;;5024912;28;20690;-66
2023/10/17 08:15:22;;;;;;;48.17;43.37;;;;;9.40;97199.00;;;;5022757;28;20212;-66
2023/10/17 08:18:15;;;;;;;42.10;38.33;;;;;9.50;97201.00;;;;5025890;28;20212;-65
2023/10/17 08:24:08;;;;;;;44.13;40.07;;;;;10.30;97200.00;;;;5019947;28;20209;-66
2023/10/17 08:30:23;;;;;;;56.70;51.33;;;;;10.80;97188.00;;;;5001008;28;20198;-65
2023/10/17 08:33:36;;;;;;;62.50;56.70;;;;;10.90;97192.00;;;;5026032;28;20197;-66
2023/10/17 08:36:42;;;;;;;57.60;52.17;;;;;11.10;97191.00;;;;5027549;28;20236;-65
2023/10/17 08:42:49;;;;;;;64.73;58.93;;;;;11.80;97183.00;;;;5027870;28;20206;-66
2023/10/17 08:45:41;;;;;;;70.40;64.07;;;;;12.00;97193.00;;;;5028912;28;20660;-66
2023/10/17 08:48:30;;;;;;;76.10;68.83;;;;;12.00;97184.00;;;;5026498;28;20605;-66
2023/10/17 08:51:19;;;;;;;54.23;48.87;;;;;12.00;97192.00;;;;5026484;28;20221;-66
2023/10/17 08:54:18;;;;;;;67.40;61.50;;;;;12.40;97196.00;;;;5025368;28;20689;-66
2023/10/17 08:57:07;;;;;;;63.97;58.83;;;;;12.50;97191.00;;;;5021172;28;20221;-65
2023/10/17 09:00:23;;;;;;;16.20;13.83;;;;;12.50;97188.00;;;;5030123;28;20209;-66
2023/10/17 09:03:20;;;;;;;67.30;62.07;;;;;12.90;97193.00;;;;5027250;28;20233;-65
2023/10/17 09:06:28;;;;;;;68.90;63.50;;;;;13.20;97195.00;;;;5020659;28;20235;-65
2023/10/17 09:09:21;;;;;;;69.40;63.87;;;;;12.90;97189.00;;;;5026723;28;20197;-66
2023/10/17 09:12:22;;;;;;;68.00;62.93;;;;;13.10;97187.00;;;;5023763;28;20752;-65
2023/10/17 09:15:27;;;;;;;67.07;62.17;;;;;13.10;97201.00;;;;5021345;28;20557;-66
2023/10/17 09:18:21;;;;;;;65.73;60.67;;;;;13.20;97190.00;;;;5029300;28;20204;-66
2023/10/17 09:21:13;;;;;;;8.60;6.80;;;;;13.40;97184.00;;;;5026008;28;20215;-66
2023/10/17 09:24:02;;;;;;;66.70;61.90;;;;;13.80;97181.00;;;;5027807;28;20197;-65
2023/10/17 09:26:51;;;;;;;15.17;13.73;;;;;13.50;97182.00;;;;5024884;28;20251;-66
2023/10/17 09:29:47;;;;;;;34.50;31.77;;;;;13.80;97185.00;;;;5027612;28;20197;-66
2023/10/17 09:32:40;;;;;;;11.63;10.40;;;;;14.10;97189.00;;;;5024987;28;20213;-66
2023/10/17 09:35:29;;;;;;;12.50;7.73;;;;;14.30;97198.00;;;;5027009;28;20248;-66
2023/10/17 09:38:19;;;;;;;24.63;22.57;;;;;14.60;97199.00;;;;5022656;28;20675;-66
2023/10/17 09:41:11;;;;;;;6.33;4.30;;;;;14.60;97196.00;;;;5023072;28;20201;-66
2023/10/17 09:44:10;;;;;;;68.70;64.43;;;;;14.90;97192.00;;;;5023239;28;20206;-66
2023/10/17 09:47:06;;;;;;;68.73;64.23;;;;;15.10;97188.00;;;;5025726;28;20221;-66
2023/10/17 09:49:59;;;;;;;80.40;75.27;;;;;15.40;97197.00;;;;5025375;28;20247;-65
2023/10/17 09:52:50;;;;;;;73.43;69.03;;;;;15.30;97188.00;;;;5025813;28;20228;-65
2023/10/17 09:55:40;;;;;;;70.70;66.73;;;;;15.60;97191.00;;;;5024926;28;20217;-66
2023/10/17 09:58:32;;;;;;;82.30;76.73;;;;;15.90;97175.00;;;;5023320;28;20220;-66
2023/10/17 10:01:23;;;;;;;85.50;79.90;;;;;15.50;97173.00;;;;5022228;28;20212;-66
2023/10/17 10:04:12;;;;;;;77.33;72.67;;;;;15.30;97169.00;;;;5027420;28;20207;-65
2023/10/17 10:07:20;;;;;;;79.00;74.30;;;;;16.00;97164.00;;;;5024675;28;20275;-65
2023/10/17 10:10:10;;;;;;;80.50;75.60;;;;;16.30;97166.00;;;;5028534;28;20671;-66
2023/10/17 10:13:01;;;;;;;75.47;71.40;;;;;16.60;97158.00;;;;5025688;28;20213;-66
2023/10/17 10:15:59;;;;;;;91.93;86.23;;;;;16.80;97166.00;;;;5027377;28;20236;-66
2023/10/17 10:19:03;;;;;;;93.47;88.00;;;;;17.30;97149.00;;;;5024509;28;20198;-66
2023/10/17 10:21:57;;;;;;;88.37;83.73;;;;;17.50;97149.00;;;;5026610;28;20204;-66
2023/10/17 10:24:48;;;;;;;97.23;91.63;;;;;15.70;97124.00;;;;5028064;28;20194;-66
2023/10/17 10:27:37;;;;;;;78.93;74.73;;;;;16.60;97139.00;;;;5023382;28;20213;-65
2023/10/17 10:30:35;;;;;;;91.10;85.87;;;;;17.70;97128.00;;;;5027282;28;20592;-66
2023/10/17 10:33:28;;;;;;;82.20;77.23;;;;;17.90;97122.00;;;;5025614;28;20694;-66
2023/10/17 10:36:17;;;;;;;120.97;113.63;;;;;17.80;97129.00;;;;5022633;28;20220;-66
2023/10/17 10:39:13;;;;;;;117.07;110.80;;;;;17.80;97123.00;;;;5023661;28;20209;-67
2023/10/17 10:42:06;;;;;;;116.60;110.33;;;;;17.70;97125.00;;;;5018943;28;20254;-66
2023/10/17 10:44:56;;;;;;;112.23;106.23;;;;;17.00;97120.00;;;;5020051;28;20205;-65
2023/10/17 10:47:45;;;;;;;88.30;83.30;;;;;16.80;97107.00;;;;5028292;28;20197;-65
2023/10/17 10:50:34;;;;;;;94.67;89.67;;;;;17.30;97116.00;;;;5021286;28;20220;-65
2023/10/17 10:53:28;;;;;;;95.27;90.53;;;;;17.10;97117.00;;;;5026443;28;20225;-65
2023/10/17 10:56:20;;;;;;;103.60;97.97;;;;;17.50;97114.00;;;;5022662;28;20972;-65
2023/10/17 10:59:11;;;;;;;90.13;85.50;;;;;17.70;97117.00;;;;5024746;28;20193;-65
2023/10/17 11:02:03;;;;;;;81.17;77.27;;;;;17.10;97108.00;;;;5027318;28;20201;-65
2023/10/17 11:04:56;;;;;;;82.13;77.90;;;;;17.00;97097.00;;;;5026315;28;20597;-65
2023/10/17 11:07:45;;;;;;;96.33;90.73;;;;;18.00;97107.00;;;;5022229;28;20270;-65
2023/10/17 11:10:34;;;;;;;88.43;83.63;;;;;17.80;97102.00;;;;5020931;28;20212;-65
2023/10/17 11:13:32;;;;;;;88.07;83.77;;;;;17.30;97104.00;;;;5023497;28;20600;-65
2023/10/17 11:16:24;;;;;;;23.73;21.83;;;;;16.60;97103.00;;;;5021731;28;20248;-65
2023/10/17 11:19:21;;;;;;;4.63;2.20;;;;;16.20;97097.00;;;;5021521;28;20200;-65
2023/10/17 11:22:10;;;;;;;5.43;2.60;;;;;17.00;97099.00;;;;5026523;28;20205;-66
2023/10/17 11:24:59;;;;;;;72.43;68.77;;;;;16.90;97091.00;;;;5019460;28;20575;-65
2023/10/17 11:27:56;;;;;;;75.93;71.47;;;;;16.00;97087.00;;;;5026743;28;20204;-65
2023/10/17 11:30:45;;;;;;;8.37;6.67;;;;;16.60;97087.00;;;;5023516;28;20293;-65
2023/10/17 11:33:45;;;;;;;52.70;50.03;;;;;16.90;97080.00;;;;5026674;28;20267;-66
2023/10/17 11:36:46;;;;;;;57.30;54.10;;;;;16.00;97077.00;;;;5024844;28;21557;-65
2023/10/17 11:39:42;;;;;;;10.47;9.50;;;;;15.30;97079.00;;;;5024395;28;20196;-65
2023/10/17 11:42:34;;;;;;;43.23;40.63;;;;;16.50;97091.00;;;;5023388;28;20288;-64
2023/10/17 11:45:33;;;;;;;60.77;56.80;;;;;15.60;97071.00;;;;5023458;28;20316;-65
2023/10/17 11:48:29;;;;;;;11.90;5.20;;;;;16.60;97068.00;;;;5024146;28;20232;-65
2023/10/17 11:51:28;;;;;;;57.33;54.17;;;;;16.00;97076.00;;;;5022430;28;20622;-65
2023/10/17 11:54:22;;;;;;;66.27;62.40;;;;;16.10;97085.00;;;;5025277;28;20201;-64
2023/10/17 11:57:24;;;;;;;54.80;51.70;;;;;17.00;97064.00;;;;5025518;28;20264;-65
2023/10/17 12:00:21;;;;;;;62.13;58.93;;;;;17.90;97072.00;;;;5024999;28;20608;-66
2023/10/17 12:03:10;;;;;;;62.23;59.03;;;;;15.70;97069.00;;;;5025144;28;20572;-65
2023/10/17 12:06:00;;;;;;;40.50;38.00;;;;;16.00;97049.00;;;;5022716;28;20221;-66
2023/10/17 12:08:51;;;;;;;4.90;2.33;;;;;14.00;97055.00;;;;5030558;28;20197;-66
2023/10/17 12:11:40;;;;;;;4.93;2.33;;;;;15.00;97064.00;;;;5026670;28;20202;-65
2023/10/17 12:14:29;;;;;;;7.47;3.60;;;;;14.40;97064.00;;;;5024667;28;20232;-65
2023/10/17 12:17:20;;;;;;;5.37;2.40;;;;;14.60;97056.00;;;;5028656;28;20228;-66
2023/10/17 12:20:11;;;;;;;1.70;0.87;;;;;15.20;97058.00;;;;5024040;28;20297;-66
2023/10/17 12:23:00;;;;;;;3.67;1.80;;;;;15.40;97055.00;;;;5029069;28;20205;-65
2023/10/17 12:25:51;;;;;;;6.50;3.10;;;;;15.50;97052.00;;;;5023544;28;20225;-65
2023/10/17 12:28:41;;;;;;;4.77;2.37;;;;;15.40;97062.00;;;;5022326;28;20206;-65
2023/10/17 12:31:30;;;;;;;6.63;3.37;;;;;15.40;97052.00;;;;5015116;28;20206;-66
2023/10/17 12:34:20;;;;;;;9.83;4.40;;;;;15.10;97048.00;;;;5009628;28;20226;-65
2023/10/17 12:37:12;;;;;;;7.33;3.47;;;;;15.20;97055.00;;;;5009910;28;20236;-65
2023/10/17 12:40:02;;;;;;;4.80;2.37;;;;;15.50;97051.00;;;;5009650;28;20208;-65
2023/10/17 12:42:55;;;;;;;5.40;2.50;;;;;15.30;97040.00;;;;5019843;28;20212;-66
2023/10/17 12:45:44;;;;;;;4.13;2.00;;;;;14.80;97029.00;;;;5021056;28;20222;-65
2023/10/17 12:48:33;;;;;;;6.70;3.23;;;;;15.50;97035.00;;;;5021835;28;20205;-66
2023/10/17 12:51:25;;;;;;;7.33;3.50;;;;;16.10;97028.00;;;;5014262;28;20267;-65
2023/10/17 12:54:14;;;;;;;6.30;3.03;;;;;16.60;97027.00;;;;5014411;28;20603;-65
2023/10/17 12:57:06;;;;;;;5.40;2.57;;;;;17.10;97022.00;;;;5013843;28;20279;-65
2023/10/17 12:59:59;;;;;;;13.43;12.70;;;;;17.60;97017.00;;;;5026515;28;20197;-65
2023/10/17 13:02:48;;;;;;;39.90;37.80;;;;;18.40;97008.00;;;;5018692;28;20573;-65
2023/10/17 13:05:37;;;;;;;45.60;42.70;;;;;19.50;97010.00;;;;5013565;28;20218;-65
2023/10/17 13:08:26;;;;;;;131.83;124.13;;;;;19.80;97004.00;;;;5009124;28;20206;-65
2023/10/17 13:11:15;;;;;;;144.23;136.43;;;;;20.90;96987.00;;;;5011816;28;20218;-66
2023/10/17 13:14:05;;;;;;;191.97;181.37;;;;;22.00;96996.00;;;;5008208;28;20221;-65
2023/10/17 13:16:55;;;;;;;263.50;248.27;;;;;22.20;96998.00;;;;5012034;28;20201;-65
2023/10/17 13:19:45;;;;;;;309.40;291.70;;;;;22.40;96999.00;;;;5023440;28;20206;-65
2023/10/17 13:22:37;;;;;;;378.13;355.57;;;;;22.80;96992.00;;;;5019368;28;20578;-65
2023/10/17 13:25:26;;;;;;;415.40;389.07;;;;;22.80;96988.00;;;;5015335;28;20825;-66
2023/10/17 13:28:16;;;;;;;413.87;389.57;;;;;22.40;96990.00;;;;5024527;28;20666;-66
2023/10/17 13:31:10;;;;;;;400.63;379.40;;;;;23.00;96989.00;;;;5026511;28;20793;-66
2023/10/17 13:34:00;;;;;;;424.23;400.57;;;;;23.10;96990.00;;;;5023222;28;20228;-65
2023/10/17 13:36:49;;;;;;;446.13;420.47;;;;;23.30;96996.00;;;;5024326;28;20223;-65
2023/10/17 13:39:38;;;;;;;441.57;417.07;;;;;22.50;96990.00;;;;5026031;28;20203;-65
2023/10/17 13:42:28;;;;;;;448.57;423.77;;;;;22.60;96985.00;;;;5025147;28;20218;-65
2023/10/17 13:45:17;;;;;;;434.47;411.27;;;;;23.20;96977.00;;;;5026501;28;20202;-65
2023/10/17 13:48:07;;;;;;;436.67;413.37;;;;;23.00;96979.00;;;;5024833;28;20208;-65
2023/10/17 13:51:06;;;;;;;457.33;432.13;;;;;23.80;96979.00;;;;5026925;28;20222;-65
2023/10/17 13:53:57;;;;;;;494.10;465.50;;;;;24.30;96970.00;;;;5024077;28;20565;-66
2023/10/17 13:56:46;;;;;;;504.47;476.03;;;;;23.90;96981.00;;;;5027237;28;20222;-65
2023/10/17 13:59:46;;;;;;;502.00;474.50;;;;;21.20;96979.00;;;;5026879;28;20211;-66
2023/10/17 14:02:35;;;;;;;455.80;432.63;;;;;20.70;96980.00;;;;5024444;28;20744;-66
2023/10/17 14:05:26;;;;;;;447.53;424.53;;;;;19.30;96971.00;;;;5026335;28;20738;-66
2023/10/17 14:08:17;;;;;;;365.57;348.67;;;;;20.10;96990.00;;;;5026513;28;20190;-66
2023/10/17 14:11:06;;;;;;;330.70;315.60;;;;;21.00;97007.00;;;;5024750;28;20201;-65
2023/10/17 14:13:55;;;;;;;288.60;275.90;;;;;18.40;96972.00;;;;5027724;28;20686;-65
2023/10/17 14:16:50;;;;;;;185.40;178.00;;;;;18.40;96988.00;;;;5026135;28;20222;-65
2023/10/17 14:19:44;;;;;;;169.03;162.07;;;;;19.20;96991.00;;;;5027465;28;20201;-65
2023/10/17 14:22:44;;;;;;;95.13;90.70;;;;;19.10;96986.00;;;;5024118;28;20203;-65
2023/10/17 14:28:41;;;;;;;91.33;87.33;;;;;17.20;96980.00;;;;5025774;28;20209;-65
2023/10/17 14:31:31;;;;;;;85.50;81.17;;;;;18.30;96986.00;;;;5024042;28;20216;-66
2023/10/17 14:34:20;;;;;;;63.87;60.67;;;;;18.10;96978.00;;;;5027447;28;20217;-65
2023/10/17 14:37:10;;;;;;;65.50;62.40;;;;;18.30;96999.00;;;;5020308;28;20221;-65
2023/10/17 14:40:00;;;;;;;59.23;56.53;;;;;18.00;96997.00;;;;5026782;28;20578;-65
2023/10/17 14:42:50;;;;;;;47.37;45.20;;;;;17.90;96983.00;;;;5026575;28;20204;-65
2023/10/17 14:45:41;;;;;;;14.33;13.23;;;;;17.80;96983.00;;;;5024499;28;20229;-65
2023/10/17 14:48:30;;;;;;;38.07;35.57;;;;;17.90;96982.00;;;;5026207;28;20201;-65
2023/10/17 14:51:20;;;;;;;37.93;35.90;;;;;17.40;96977.00;;;;5024781;28;20220;-65
2023/10/17 14:54:09;;;;;;;29.37;27.60;;;;;17.30;96981.00;;;;5021487;28;20279;-65
2023/10/17 14:57:02;;;;;;;25.97;24.67;;;;;17.10;96992.00;;;;5022552;28;20221;-64
2023/10/17 14:59:52;;;;;;;10.73;9.67;;;;;16.90;96991.00;;;;5027243;28;20197;-65
2023/10/17 15:02:43;;;;;;;24.10;10.87;;;;;16.70;96984.00;;;;5025398;28;20212;-65
2023/10/17 15:05:32;;;;;;;9.50;4.50;;;;;15.50;96979.00;;;;5024207;28;20224;-65
2023/10/17 15:08:21;;;;;;;7.33;3.67;;;;;15.40;96975.00;;;;5025407;28;20205;-65
2023/10/17 15:11:11;;;;;;;2.17;1.23;;;;;15.60;96977.00;;;;5025513;28;20200;-65
2023/10/17 15:14:01;;;;;;;4.80;2.40;;;;;15.60;96975.00;;;;5028308;28;20217;-65
2023/10/17 15:16:52;;;;;;;5.60;2.83;;;;;15.60;96965.00;;;;5025175;28;20246;-64
2023/10/17 15:19:41;;;;;;;2.57;1.37;;;;;15.40;96970.00;;;;5025425;28;20212;-65
2023/10/17 15:22:30;;;;;;;6.17;3.10;;;;;15.30;96963.00;;;;5023977;28;20285;-65
2023/10/17 15:25:20;;;;;;;5.30;2.57;;;;;15.20;96967.00;;;;5026988;28;20208;-65
2023/10/17 15:28:11;;;;;;;4.07;2.17;;;;;15.10;96971.00;;;;5025337;28;20204;-65
2023/10/17 15:31:03;;;;;;;4.23;2.20;;;;;14.90;96967.00;;;;5026921;28;20209;-65
2023/10/17 15:33:55;;;;;;;5.47;2.73;;;;;14.90;96964.00;;;;5028991;28;20224;-65
2023/10/17 15:36:44;;;;;;;4.37;2.20;;;;;14.80;96969.00;;;;5026376;28;20232;-65
2023/10/17 15:39:34;;;;;;;7.43;3.57;;;;;14.70;96966.00;;;;5026939;28;20584;-65
2023/10/17 15:42:23;;;;;;;7.37;3.37;;;;;13.90;96975.00;;;;5030400;28;20205;-65